sensor_id;sensor_type;location;lat;lon;timestamp;P1;durP1;ratioP1;P2;durP2;ratioP2
12950;SDS011;6540;50.858;7.232;2022-07-21T00:00:31;4.83;;;3.50;;
12950;SDS011;6540;50.858;7.232;2022-07-21T00:02:57;7.10;;;4.10;;
12950;SDS011;6540;50.858;7.232;2022-07-21T00:05:23;5.37;;;4.17;;
12950;SDS011;6540;50.858;7.232;2022-07-21T00:07:58;4.50;;;4.10;;
12950;SDS011;6540;50.858;7.232;2022-07-21T00:10:24;6.43;;;4.53;;
12950;SDS011;6540;50.858;7.232;2022-07-21T00:12:50;11.80;;;5.67;;
12950;SDS011;6540;50.858;7.232;2022-07-21T00:15:17;9.57;;;5.77;;
12950;SDS011;6540;50.858;7.232;2022-07-21T00:17:44;11.97;;;5.70;;
12950;SDS011;6540;50.858;7.232;2022-07-21T00:20:09;5.47;;;4.37;;
12950;SDS011;6540;50.858;7.232;2022-07-21T00:22:37;6.83;;;5.10;;
12950;SDS011;6540;50.858;7.232;2022-07-21T00:25:04;7.43;;;5.07;;
12950;SDS011;6540;50.858;7.232;2022-07-21T00:27:30;7.33;;;4.87;;
12950;SDS011;6540;50.858;7.232;2022-07-21T00:29:56;6.03;;;5.20;;
12950;SDS011;6540;50.858;7.232;2022-07-21T00:32:21;7.03;;;5.40;;
12950;SDS011;6540;50.858;7.232;2022-07-21T00:34:47;6.77;;;5.00;;
12950;SDS011;6540;50.858;7.232;2022-07-21T00:37:12;7.93;;;5.57;;
12950;SDS011;6540;50.858;7.232;2022-07-21T00:39:37;7.67;;;6.03;;
12950;SDS011;6540;50.858;7.232;2022-07-21T00:42:03;6.60;;;5.07;;
12950;SDS011;6540;50.858;7.232;2022-07-21T00:44:29;9.40;;;6.10;;
12950;SDS011;6540;50.858;7.232;2022-07-21T00:46:55;6.47;;;5.33;;
12950;SDS011;6540;50.858;7.232;2022-07-21T00:49:21;8.33;;;5.13;;
12950;SDS011;6540;50.858;7.232;2022-07-21T00:51:47;8.20;;;5.27;;
12950;SDS011;6540;50.858;7.232;2022-07-21T00:54:17;7.97;;;5.57;;
12950;SDS011;6540;50.858;7.232;2022-07-21T00:56:46;7.00;;;5.63;;
12950;SDS011;6540;50.858;7.232;2022-07-21T00:59:12;6.80;;;5.37;;
12950;SDS011;6540;50.858;7.232;2022-07-21T01:01:38;9.43;;;6.30;;
12950;SDS011;6540;50.858;7.232;2022-07-21T01:04:03;8.23;;;6.53;;
12950;SDS011;6540;50.858;7.232;2022-07-21T01:06:29;8.97;;;6.43;;
12950;SDS011;6540;50.858;7.232;2022-07-21T01:08:54;9.60;;;6.33;;
12950;SDS011;6540;50.858;7.232;2022-07-21T01:11:20;7.73;;;6.30;;
12950;SDS011;6540;50.858;7.232;2022-07-21T01:13:46;8.20;;;6.73;;
12950;SDS011;6540;50.858;7.232;2022-07-21T01:16:13;8.17;;;6.23;;
12950;SDS011;6540;50.858;7.232;2022-07-21T01:18:40;8.80;;;7.13;;
12950;SDS011;6540;50.858;7.232;2022-07-21T01:21:16;8.27;;;6.57;;
12950;SDS011;6540;50.858;7.232;2022-07-21T01:23:57;11.60;;;7.00;;
12950;SDS011;6540;50.858;7.232;2022-07-21T01:26:23;11.43;;;7.50;;
12950;SDS011;6540;50.858;7.232;2022-07-21T01:28:49;9.60;;;8.13;;
12950;SDS011;6540;50.858;7.232;2022-07-21T01:31:15;8.20;;;7.40;;
12950;SDS011;6540;50.858;7.232;2022-07-21T01:33:40;9.07;;;6.83;;
12950;SDS011;6540;50.858;7.232;2022-07-21T01:36:06;7.43;;;6.63;;
12950;SDS011;6540;50.858;7.232;2022-07-21T01:38:31;9.77;;;7.60;;
12950;SDS011;6540;50.858;7.232;2022-07-21T01:41:15;9.03;;;7.00;;
12950;SDS011;6540;50.858;7.232;2022-07-21T01:43:57;8.33;;;7.57;;
12950;SDS011;6540;50.858;7.232;2022-07-21T01:46:24;9.83;;;8.47;;
12950;SDS011;6540;50.858;7.232;2022-07-21T01:48:49;9.43;;;7.73;;
12950;SDS011;6540;50.858;7.232;2022-07-21T01:51:16;9.73;;;8.70;;
12950;SDS011;6540;50.858;7.232;2022-07-21T01:53:42;12.00;;;9.10;;
12950;SDS011;6540;50.858;7.232;2022-07-21T01:56:07;11.33;;;7.90;;
12950;SDS011;6540;50.858;7.232;2022-07-21T01:58:33;11.77;;;9.03;;
12950;SDS011;6540;50.858;7.232;2022-07-21T02:00:58;12.60;;;10.13;;
12950;SDS011;6540;50.858;7.232;2022-07-21T02:03:24;15.00;;;11.43;;
12950;SDS011;6540;50.858;7.232;2022-07-21T02:05:49;11.70;;;10.43;;
12950;SDS011;6540;50.858;7.232;2022-07-21T02:08:15;12.80;;;10.33;;
12950;SDS011;6540;50.858;7.232;2022-07-21T02:10:40;11.13;;;8.87;;
12950;SDS011;6540;50.858;7.232;2022-07-21T02:13:06;11.13;;;8.77;;
12950;SDS011;6540;50.858;7.232;2022-07-21T02:15:31;9.60;;;8.57;;
12950;SDS011;6540;50.858;7.232;2022-07-21T02:17:57;11.57;;;8.63;;
12950;SDS011;6540;50.858;7.232;2022-07-21T02:20:23;9.83;;;8.73;;
12950;SDS011;6540;50.858;7.232;2022-07-21T02:22:50;11.33;;;8.83;;
12950;SDS011;6540;50.858;7.232;2022-07-21T02:25:16;9.23;;;8.33;;
12950;SDS011;6540;50.858;7.232;2022-07-21T02:27:42;12.37;;;8.20;;
12950;SDS011;6540;50.858;7.232;2022-07-21T02:30:08;11.33;;;7.97;;
12950;SDS011;6540;50.858;7.232;2022-07-21T02:32:34;13.20;;;7.93;;
12950;SDS011;6540;50.858;7.232;2022-07-21T02:34:59;9.67;;;8.50;;
12950;SDS011;6540;50.858;7.232;2022-07-21T02:37:24;10.07;;;7.37;;
12950;SDS011;6540;50.858;7.232;2022-07-21T02:39:50;10.43;;;8.23;;
12950;SDS011;6540;50.858;7.232;2022-07-21T02:42:15;9.90;;;8.17;;
12950;SDS011;6540;50.858;7.232;2022-07-21T02:44:41;8.90;;;7.97;;
12950;SDS011;6540;50.858;7.232;2022-07-21T02:47:06;9.50;;;7.90;;
12950;SDS011;6540;50.858;7.232;2022-07-21T02:49:32;10.20;;;9.00;;
12950;SDS011;6540;50.858;7.232;2022-07-21T02:51:57;10.37;;;8.60;;
12950;SDS011;6540;50.858;7.232;2022-07-21T02:54:22;11.33;;;8.70;;
12950;SDS011;6540;50.858;7.232;2022-07-21T02:56:48;13.97;;;9.00;;
12950;SDS011;6540;50.858;7.232;2022-07-21T02:59:13;11.87;;;9.67;;
12950;SDS011;6540;50.858;7.232;2022-07-21T03:01:39;10.80;;;9.70;;
12950;SDS011;6540;50.858;7.232;2022-07-21T03:04:04;11.37;;;10.03;;
12950;SDS011;6540;50.858;7.232;2022-07-21T03:06:29;15.03;;;9.90;;
12950;SDS011;6540;50.858;7.232;2022-07-21T03:08:55;15.50;;;10.53;;
12950;SDS011;6540;50.858;7.232;2022-07-21T03:11:20;11.47;;;9.00;;
12950;SDS011;6540;50.858;7.232;2022-07-21T03:13:46;11.47;;;9.77;;
12950;SDS011;6540;50.858;7.232;2022-07-21T03:16:11;11.67;;;10.47;;
12950;SDS011;6540;50.858;7.232;2022-07-21T03:18:36;12.03;;;10.13;;
12950;SDS011;6540;50.858;7.232;2022-07-21T03:21:02;11.40;;;10.00;;
12950;SDS011;6540;50.858;7.232;2022-07-21T03:23:27;11.70;;;10.47;;
12950;SDS011;6540;50.858;7.232;2022-07-21T03:25:53;11.40;;;9.67;;
12950;SDS011;6540;50.858;7.232;2022-07-21T03:28:18;10.80;;;9.10;;
12950;SDS011;6540;50.858;7.232;2022-07-21T03:30:44;12.50;;;9.73;;
12950;SDS011;6540;50.858;7.232;2022-07-21T03:33:09;10.90;;;9.80;;
12950;SDS011;6540;50.858;7.232;2022-07-21T03:35:34;11.90;;;10.30;;
12950;SDS011;6540;50.858;7.232;2022-07-21T03:38:03;10.63;;;9.43;;
12950;SDS011;6540;50.858;7.232;2022-07-21T03:40:30;12.07;;;9.97;;
12950;SDS011;6540;50.858;7.232;2022-07-21T03:42:59;10.73;;;8.97;;
12950;SDS011;6540;50.858;7.232;2022-07-21T03:45:26;11.33;;;10.10;;
12950;SDS011;6540;50.858;7.232;2022-07-21T03:47:55;11.63;;;9.00;;
12950;SDS011;6540;50.858;7.232;2022-07-21T03:50:22;11.13;;;9.80;;
12950;SDS011;6540;50.858;7.232;2022-07-21T03:52:48;13.43;;;10.67;;
12950;SDS011;6540;50.858;7.232;2022-07-21T03:55:14;13.50;;;10.70;;
12950;SDS011;6540;50.858;7.232;2022-07-21T03:57:47;12.27;;;9.83;;
12950;SDS011;6540;50.858;7.232;2022-07-21T04:00:16;15.70;;;10.13;;
12950;SDS011;6540;50.858;7.232;2022-07-21T04:02:44;13.87;;;10.13;;
12950;SDS011;6540;50.858;7.232;2022-07-21T04:05:11;11.40;;;10.20;;
12950;SDS011;6540;50.858;7.232;2022-07-21T04:07:40;12.33;;;9.47;;
12950;SDS011;6540;50.858;7.232;2022-07-21T04:10:08;12.80;;;10.80;;
12950;SDS011;6540;50.858;7.232;2022-07-21T04:12:34;12.60;;;9.57;;
12950;SDS011;6540;50.858;7.232;2022-07-21T04:15:00;12.80;;;9.70;;
12950;SDS011;6540;50.858;7.232;2022-07-21T04:17:25;11.60;;;9.63;;
12950;SDS011;6540;50.858;7.232;2022-07-21T04:19:50;16.97;;;11.03;;
12950;SDS011;6540;50.858;7.232;2022-07-21T04:22:16;14.00;;;10.87;;
12950;SDS011;6540;50.858;7.232;2022-07-21T04:24:41;11.87;;;10.47;;
12950;SDS011;6540;50.858;7.232;2022-07-21T04:27:07;12.83;;;10.20;;
12950;SDS011;6540;50.858;7.232;2022-07-21T04:29:32;10.90;;;9.70;;
12950;SDS011;6540;50.858;7.232;2022-07-21T04:31:58;12.73;;;10.07;;
12950;SDS011;6540;50.858;7.232;2022-07-21T04:34:24;13.33;;;10.00;;
12950;SDS011;6540;50.858;7.232;2022-07-21T04:36:49;14.10;;;9.90;;
12950;SDS011;6540;50.858;7.232;2022-07-21T04:39:14;15.77;;;10.53;;
12950;SDS011;6540;50.858;7.232;2022-07-21T04:41:40;13.23;;;10.33;;
12950;SDS011;6540;50.858;7.232;2022-07-21T04:44:05;12.17;;;9.97;;
12950;SDS011;6540;50.858;7.232;2022-07-21T04:46:30;12.37;;;8.90;;
12950;SDS011;6540;50.858;7.232;2022-07-21T04:48:56;12.60;;;9.40;;
12950;SDS011;6540;50.858;7.232;2022-07-21T04:51:21;10.77;;;9.57;;
12950;SDS011;6540;50.858;7.232;2022-07-21T04:53:46;11.13;;;9.60;;
12950;SDS011;6540;50.858;7.232;2022-07-21T04:56:13;12.37;;;9.50;;
12950;SDS011;6540;50.858;7.232;2022-07-21T04:58:38;14.07;;;9.97;;
12950;SDS011;6540;50.858;7.232;2022-07-21T05:01:04;10.73;;;7.93;;
12950;SDS011;6540;50.858;7.232;2022-07-21T05:03:29;8.37;;;7.57;;
12950;SDS011;6540;50.858;7.232;2022-07-21T05:05:54;10.23;;;7.73;;
12950;SDS011;6540;50.858;7.232;2022-07-21T05:08:20;8.30;;;7.10;;
12950;SDS011;6540;50.858;7.232;2022-07-21T05:10:45;8.67;;;6.20;;
12950;SDS011;6540;50.858;7.232;2022-07-21T05:13:10;7.50;;;6.77;;
12950;SDS011;6540;50.858;7.232;2022-07-21T05:15:36;7.40;;;6.63;;
12950;SDS011;6540;50.858;7.232;2022-07-21T05:18:01;8.77;;;6.77;;
12950;SDS011;6540;50.858;7.232;2022-07-21T05:20:27;7.53;;;6.73;;
12950;SDS011;6540;50.858;7.232;2022-07-21T05:22:52;7.33;;;6.63;;
12950;SDS011;6540;50.858;7.232;2022-07-21T05:25:17;8.17;;;6.83;;
12950;SDS011;6540;50.858;7.232;2022-07-21T05:27:43;7.37;;;6.33;;
12950;SDS011;6540;50.858;7.232;2022-07-21T05:30:08;7.33;;;6.63;;
12950;SDS011;6540;50.858;7.232;2022-07-21T05:32:35;9.40;;;6.23;;
12950;SDS011;6540;50.858;7.232;2022-07-21T05:35:00;7.00;;;6.30;;
12950;SDS011;6540;50.858;7.232;2022-07-21T05:37:26;8.43;;;5.90;;
12950;SDS011;6540;50.858;7.232;2022-07-21T05:39:52;9.17;;;6.63;;
12950;SDS011;6540;50.858;7.232;2022-07-21T05:42:17;7.13;;;6.33;;
12950;SDS011;6540;50.858;7.232;2022-07-21T05:44:43;8.67;;;6.07;;
12950;SDS011;6540;50.858;7.232;2022-07-21T05:47:08;7.47;;;6.63;;
12950;SDS011;6540;50.858;7.232;2022-07-21T05:49:33;7.80;;;6.13;;
12950;SDS011;6540;50.858;7.232;2022-07-21T05:51:59;7.43;;;6.57;;
12950;SDS011;6540;50.858;7.232;2022-07-21T05:54:24;7.23;;;6.20;;
12950;SDS011;6540;50.858;7.232;2022-07-21T05:56:49;8.43;;;6.23;;
12950;SDS011;6540;50.858;7.232;2022-07-21T05:59:15;6.77;;;6.17;;
12950;SDS011;6540;50.858;7.232;2022-07-21T06:01:40;7.70;;;6.20;;
12950;SDS011;6540;50.858;7.232;2022-07-21T06:04:06;8.43;;;6.53;;
12950;SDS011;6540;50.858;7.232;2022-07-21T06:06:31;7.67;;;6.73;;
12950;SDS011;6540;50.858;7.232;2022-07-21T06:08:56;8.70;;;6.63;;
12950;SDS011;6540;50.858;7.232;2022-07-21T06:11:22;7.37;;;6.60;;
12950;SDS011;6540;50.858;7.232;2022-07-21T06:13:48;7.27;;;6.63;;
12950;SDS011;6540;50.858;7.232;2022-07-21T06:16:13;8.30;;;6.03;;
12950;SDS011;6540;50.858;7.232;2022-07-21T06:18:39;8.80;;;6.83;;
12950;SDS011;6540;50.858;7.232;2022-07-21T06:21:05;9.50;;;6.43;;
12950;SDS011;6540;50.858;7.232;2022-07-21T06:23:30;10.27;;;6.37;;
12950;SDS011;6540;50.858;7.232;2022-07-21T06:25:56;8.13;;;6.90;;
12950;SDS011;6540;50.858;7.232;2022-07-21T06:28:22;7.90;;;6.90;;
12950;SDS011;6540;50.858;7.232;2022-07-21T06:30:48;7.73;;;6.93;;
12950;SDS011;6540;50.858;7.232;2022-07-21T06:33:13;7.93;;;6.97;;
12950;SDS011;6540;50.858;7.232;2022-07-21T06:35:39;7.20;;;6.50;;
12950;SDS011;6540;50.858;7.232;2022-07-21T06:38:05;7.20;;;6.47;;
12950;SDS011;6540;50.858;7.232;2022-07-21T06:40:31;7.73;;;6.40;;
12950;SDS011;6540;50.858;7.232;2022-07-21T06:42:56;7.47;;;6.63;;
12950;SDS011;6540;50.858;7.232;2022-07-21T06:45:22;9.33;;;7.03;;
12950;SDS011;6540;50.858;7.232;2022-07-21T06:47:49;9.60;;;6.90;;
12950;SDS011;6540;50.858;7.232;2022-07-21T06:50:14;9.37;;;7.03;;
12950;SDS011;6540;50.858;7.232;2022-07-21T06:52:39;7.27;;;6.27;;
12950;SDS011;6540;50.858;7.232;2022-07-21T06:55:05;7.13;;;6.17;;
12950;SDS011;6540;50.858;7.232;2022-07-21T06:57:33;7.63;;;6.13;;
12950;SDS011;6540;50.858;7.232;2022-07-21T06:59:59;8.33;;;6.83;;
12950;SDS011;6540;50.858;7.232;2022-07-21T07:02:24;6.80;;;5.53;;
12950;SDS011;6540;50.858;7.232;2022-07-21T07:04:50;6.27;;;5.67;;
12950;SDS011;6540;50.858;7.232;2022-07-21T07:07:15;7.10;;;5.53;;
12950;SDS011;6540;50.858;7.232;2022-07-21T07:09:40;5.50;;;4.90;;
12950;SDS011;6540;50.858;7.232;2022-07-21T07:12:06;6.63;;;5.33;;
12950;SDS011;6540;50.858;7.232;2022-07-21T07:14:34;6.13;;;4.87;;
12950;SDS011;6540;50.858;7.232;2022-07-21T07:17:00;6.07;;;5.40;;
12950;SDS011;6540;50.858;7.232;2022-07-21T07:19:27;6.07;;;5.03;;
12950;SDS011;6540;50.858;7.232;2022-07-21T07:21:53;6.13;;;4.77;;
12950;SDS011;6540;50.858;7.232;2022-07-21T07:24:19;6.37;;;5.10;;
12950;SDS011;6540;50.858;7.232;2022-07-21T07:26:44;4.87;;;4.47;;
12950;SDS011;6540;50.858;7.232;2022-07-21T07:29:10;6.23;;;5.10;;
12950;SDS011;6540;50.858;7.232;2022-07-21T07:31:36;5.77;;;4.87;;
12950;SDS011;6540;50.858;7.232;2022-07-21T07:34:02;6.00;;;4.70;;
12950;SDS011;6540;50.858;7.232;2022-07-21T07:36:28;5.70;;;5.10;;
12950;SDS011;6540;50.858;7.232;2022-07-21T07:38:54;5.53;;;4.87;;
12950;SDS011;6540;50.858;7.232;2022-07-21T07:41:21;6.13;;;4.90;;
12950;SDS011;6540;50.858;7.232;2022-07-21T07:43:47;5.10;;;4.60;;
12950;SDS011;6540;50.858;7.232;2022-07-21T07:46:13;6.50;;;4.87;;
12950;SDS011;6540;50.858;7.232;2022-07-21T07:48:39;6.20;;;5.07;;
12950;SDS011;6540;50.858;7.232;2022-07-21T07:51:06;7.97;;;4.57;;
12950;SDS011;6540;50.858;7.232;2022-07-21T07:53:33;5.60;;;5.03;;
12950;SDS011;6540;50.858;7.232;2022-07-21T07:55:58;5.07;;;4.57;;
12950;SDS011;6540;50.858;7.232;2022-07-21T07:58:24;5.50;;;4.07;;
12950;SDS011;6540;50.858;7.232;2022-07-21T08:00:49;5.27;;;4.77;;
12950;SDS011;6540;50.858;7.232;2022-07-21T08:03:15;6.03;;;5.27;;
12950;SDS011;6540;50.858;7.232;2022-07-21T08:05:40;5.03;;;4.53;;
12950;SDS011;6540;50.858;7.232;2022-07-21T08:08:06;6.63;;;4.60;;
12950;SDS011;6540;50.858;7.232;2022-07-21T08:10:31;6.20;;;5.03;;
12950;SDS011;6540;50.858;7.232;2022-07-21T08:12:57;6.83;;;5.20;;
12950;SDS011;6540;50.858;7.232;2022-07-21T08:15:22;4.97;;;4.17;;
12950;SDS011;6540;50.858;7.232;2022-07-21T08:17:48;4.97;;;4.23;;
12950;SDS011;6540;50.858;7.232;2022-07-21T08:20:13;4.80;;;4.27;;
12950;SDS011;6540;50.858;7.232;2022-07-21T08:22:38;5.27;;;4.77;;
12950;SDS011;6540;50.858;7.232;2022-07-21T08:25:04;6.33;;;4.70;;
12950;SDS011;6540;50.858;7.232;2022-07-21T08:27:30;4.73;;;4.30;;
12950;SDS011;6540;50.858;7.232;2022-07-21T08:29:55;5.30;;;3.80;;
12950;SDS011;6540;50.858;7.232;2022-07-21T08:32:21;4.83;;;4.27;;
12950;SDS011;6540;50.858;7.232;2022-07-21T08:34:47;6.00;;;4.40;;
12950;SDS011;6540;50.858;7.232;2022-07-21T08:37:13;4.90;;;4.40;;
12950;SDS011;6540;50.858;7.232;2022-07-21T08:39:38;5.50;;;4.47;;
12950;SDS011;6540;50.858;7.232;2022-07-21T08:42:06;6.07;;;4.83;;
12950;SDS011;6540;50.858;7.232;2022-07-21T08:44:33;4.77;;;4.27;;
12950;SDS011;6540;50.858;7.232;2022-07-21T08:46:59;4.70;;;4.13;;
12950;SDS011;6540;50.858;7.232;2022-07-21T08:49:25;6.67;;;4.60;;
12950;SDS011;6540;50.858;7.232;2022-07-21T08:51:52;5.07;;;4.60;;
12950;SDS011;6540;50.858;7.232;2022-07-21T08:54:19;5.37;;;3.90;;
12950;SDS011;6540;50.858;7.232;2022-07-21T08:56:46;6.33;;;4.80;;
12950;SDS011;6540;50.858;7.232;2022-07-21T08:59:12;5.33;;;4.60;;
12950;SDS011;6540;50.858;7.232;2022-07-21T09:01:37;5.03;;;4.53;;
12950;SDS011;6540;50.858;7.232;2022-07-21T09:04:24;5.37;;;4.67;;
12950;SDS011;6540;50.858;7.232;2022-07-21T09:07:01;7.73;;;4.60;;
12950;SDS011;6540;50.858;7.232;2022-07-21T09:09:32;5.00;;;4.50;;
12950;SDS011;6540;50.858;7.232;2022-07-21T09:11:59;4.40;;;4.03;;
12950;SDS011;6540;50.858;7.232;2022-07-21T09:14:27;4.80;;;4.40;;
12950;SDS011;6540;50.858;7.232;2022-07-21T09:16:56;5.03;;;4.53;;
12950;SDS011;6540;50.858;7.232;2022-07-21T09:21:57;5.63;;;4.27;;
12950;SDS011;6540;50.858;7.232;2022-07-21T09:24:25;5.83;;;4.67;;
12950;SDS011;6540;50.858;7.232;2022-07-21T09:27:04;4.20;;;3.73;;
12950;SDS011;6540;50.858;7.232;2022-07-21T09:32:21;4.17;;;3.80;;
12950;SDS011;6540;50.858;7.232;2022-07-21T09:34:58;5.50;;;4.23;;
12950;SDS011;6540;50.858;7.232;2022-07-21T09:37:24;4.97;;;4.40;;
12950;SDS011;6540;50.858;7.232;2022-07-21T09:42:21;6.60;;;4.23;;
12950;SDS011;6540;50.858;7.232;2022-07-21T09:44:58;4.50;;;4.03;;
12950;SDS011;6540;50.858;7.232;2022-07-21T09:47:30;4.63;;;4.23;;
12950;SDS011;6540;50.858;7.232;2022-07-21T09:49:57;4.97;;;3.43;;
12950;SDS011;6540;50.858;7.232;2022-07-21T09:52:27;5.57;;;3.70;;
12950;SDS011;6540;50.858;7.232;2022-07-21T09:54:55;5.43;;;4.10;;
12950;SDS011;6540;50.858;7.232;2022-07-21T09:57:22;4.17;;;3.77;;
12950;SDS011;6540;50.858;7.232;2022-07-21T09:59:48;5.33;;;4.03;;
12950;SDS011;6540;50.858;7.232;2022-07-21T10:02:25;4.30;;;3.90;;
12950;SDS011;6540;50.858;7.232;2022-07-21T10:07:26;4.33;;;3.80;;
12950;SDS011;6540;50.858;7.232;2022-07-21T10:09:52;4.40;;;3.70;;
12950;SDS011;6540;50.858;7.232;2022-07-21T10:12:19;6.83;;;4.30;;
12950;SDS011;6540;50.858;7.232;2022-07-21T10:14:44;4.87;;;4.03;;
12950;SDS011;6540;50.858;7.232;2022-07-21T10:17:11;5.00;;;3.93;;
12950;SDS011;6540;50.858;7.232;2022-07-21T10:25:19;5.40;;;3.83;;
12950;SDS011;6540;50.858;7.232;2022-07-21T10:30:50;5.47;;;3.93;;
12950;SDS011;6540;50.858;7.232;2022-07-21T10:33:21;5.50;;;4.17;;
12950;SDS011;6540;50.858;7.232;2022-07-21T10:36:07;4.63;;;4.00;;
12950;SDS011;6540;50.858;7.232;2022-07-21T10:38:34;6.47;;;4.40;;
12950;SDS011;6540;50.858;7.232;2022-07-21T10:41:01;6.80;;;4.30;;
12950;SDS011;6540;50.858;7.232;2022-07-21T10:45:54;4.73;;;4.20;;
12950;SDS011;6540;50.858;7.232;2022-07-21T10:51:08;10.13;;;3.43;;
12950;SDS011;6540;50.858;7.232;2022-07-21T10:53:35;3.70;;;3.40;;
12950;SDS011;6540;50.858;7.232;2022-07-21T10:56:01;4.30;;;3.40;;
12950;SDS011;6540;50.858;7.232;2022-07-21T10:58:27;3.60;;;3.30;;
12950;SDS011;6540;50.858;7.232;2022-07-21T11:24:37;4.27;;;3.40;;
12950;SDS011;6540;50.858;7.232;2022-07-21T11:29:36;4.07;;;3.60;;
12950;SDS011;6540;50.858;7.232;2022-07-21T11:32:03;5.10;;;3.60;;
12950;SDS011;6540;50.858;7.232;2022-07-21T11:34:46;4.00;;;3.60;;
12950;SDS011;6540;50.858;7.232;2022-07-21T11:37:13;3.73;;;3.33;;
12950;SDS011;6540;50.858;7.232;2022-07-21T11:39:40;7.63;;;3.80;;
12950;SDS011;6540;50.858;7.232;2022-07-21T11:42:07;4.53;;;3.80;;
12950;SDS011;6540;50.858;7.232;2022-07-21T11:44:35;4.27;;;3.83;;
12950;SDS011;6540;50.858;7.232;2022-07-21T11:47:01;4.37;;;3.87;;
12950;SDS011;6540;50.858;7.232;2022-07-21T11:49:28;6.37;;;4.10;;
12950;SDS011;6540;50.858;7.232;2022-07-21T11:52:03;5.47;;;4.43;;
12950;SDS011;6540;50.858;7.232;2022-07-21T11:57:05;4.90;;;4.00;;
12950;SDS011;6540;50.858;7.232;2022-07-21T11:59:33;4.50;;;4.10;;
12950;SDS011;6540;50.858;7.232;2022-07-21T12:02:00;4.73;;;3.80;;
12950;SDS011;6540;50.858;7.232;2022-07-21T12:07:00;5.90;;;4.40;;
12950;SDS011;6540;50.858;7.232;2022-07-21T12:09:28;6.03;;;5.43;;
12950;SDS011;6540;50.858;7.232;2022-07-21T12:11:53;5.97;;;5.37;;
12950;SDS011;6540;50.858;7.232;2022-07-21T12:14:19;6.20;;;5.60;;
12950;SDS011;6540;50.858;7.232;2022-07-21T12:16:51;7.90;;;6.60;;
12950;SDS011;6540;50.858;7.232;2022-07-21T12:19:17;10.57;;;6.70;;
12950;SDS011;6540;50.858;7.232;2022-07-21T12:21:53;9.80;;;7.27;;
12950;SDS011;6540;50.858;7.232;2022-07-21T12:24:19;9.93;;;7.53;;
12950;SDS011;6540;50.858;7.232;2022-07-21T12:26:46;10.87;;;8.27;;
12950;SDS011;6540;50.858;7.232;2022-07-21T12:29:25;11.63;;;8.77;;
12950;SDS011;6540;50.858;7.232;2022-07-21T12:31:51;9.93;;;7.90;;
12950;SDS011;6540;50.858;7.232;2022-07-21T12:34:16;10.43;;;7.87;;
12950;SDS011;6540;50.858;7.232;2022-07-21T12:36:44;12.30;;;8.73;;
12950;SDS011;6540;50.858;7.232;2022-07-21T12:39:17;12.37;;;8.03;;
12950;SDS011;6540;50.858;7.232;2022-07-21T12:42:07;9.20;;;8.30;;
12950;SDS011;6540;50.858;7.232;2022-07-21T12:44:33;9.23;;;8.33;;
12950;SDS011;6540;50.858;7.232;2022-07-21T12:50:03;9.13;;;8.23;;
12950;SDS011;6540;50.858;7.232;2022-07-21T12:52:31;9.83;;;8.30;;
12950;SDS011;6540;50.858;7.232;2022-07-21T12:54:57;13.77;;;7.93;;
12950;SDS011;6540;50.858;7.232;2022-07-21T12:57:30;9.13;;;8.20;;
12950;SDS011;6540;50.858;7.232;2022-07-21T12:59:57;10.07;;;7.93;;
12950;SDS011;6540;50.858;7.232;2022-07-21T13:02:24;8.00;;;7.20;;
12950;SDS011;6540;50.858;7.232;2022-07-21T13:04:50;9.13;;;8.00;;
12950;SDS011;6540;50.858;7.232;2022-07-21T13:07:17;9.07;;;8.03;;
12950;SDS011;6540;50.858;7.232;2022-07-21T13:09:42;9.33;;;8.07;;
12950;SDS011;6540;50.858;7.232;2022-07-21T13:12:10;8.33;;;7.10;;
12950;SDS011;6540;50.858;7.232;2022-07-21T13:14:39;12.10;;;8.00;;
12950;SDS011;6540;50.858;7.232;2022-07-21T13:17:06;8.87;;;7.80;;
12950;SDS011;6540;50.858;7.232;2022-07-21T13:19:33;8.60;;;7.73;;
12950;SDS011;6540;50.858;7.232;2022-07-21T13:22:01;9.53;;;7.77;;
12950;SDS011;6540;50.858;7.232;2022-07-21T13:24:27;10.00;;;7.93;;
12950;SDS011;6540;50.858;7.232;2022-07-21T13:26:52;9.13;;;7.83;;
12950;SDS011;6540;50.858;7.232;2022-07-21T13:29:18;8.17;;;7.37;;
12950;SDS011;6540;50.858;7.232;2022-07-21T13:31:43;7.57;;;6.73;;
12950;SDS011;6540;50.858;7.232;2022-07-21T13:34:08;8.03;;;7.23;;
12950;SDS011;6540;50.858;7.232;2022-07-21T13:36:34;9.17;;;8.13;;
12950;SDS011;6540;50.858;7.232;2022-07-21T13:39:01;9.87;;;7.87;;
12950;SDS011;6540;50.858;7.232;2022-07-21T13:41:28;8.80;;;7.87;;
12950;SDS011;6540;50.858;7.232;2022-07-21T13:43:54;10.10;;;8.60;;
12950;SDS011;6540;50.858;7.232;2022-07-21T13:46:19;8.60;;;7.60;;
12950;SDS011;6540;50.858;7.232;2022-07-21T13:48:45;8.40;;;7.60;;
12950;SDS011;6540;50.858;7.232;2022-07-21T13:51:11;9.20;;;8.07;;
12950;SDS011;6540;50.858;7.232;2022-07-21T13:53:38;8.27;;;7.33;;
12950;SDS011;6540;50.858;7.232;2022-07-21T13:56:04;9.27;;;8.20;;
12950;SDS011;6540;50.858;7.232;2022-07-21T13:58:30;11.63;;;8.53;;
12950;SDS011;6540;50.858;7.232;2022-07-21T14:00:55;9.83;;;8.83;;
12950;SDS011;6540;50.858;7.232;2022-07-21T14:03:20;10.97;;;8.43;;
12950;SDS011;6540;50.858;7.232;2022-07-21T14:05:46;9.57;;;8.57;;
12950;SDS011;6540;50.858;7.232;2022-07-21T14:08:11;12.90;;;9.27;;
12950;SDS011;6540;50.858;7.232;2022-07-21T14:10:36;9.63;;;8.03;;
12950;SDS011;6540;50.858;7.232;2022-07-21T14:13:02;11.23;;;8.80;;
12950;SDS011;6540;50.858;7.232;2022-07-21T14:15:27;11.47;;;8.47;;
12950;SDS011;6540;50.858;7.232;2022-07-21T14:17:53;11.43;;;9.10;;
12950;SDS011;6540;50.858;7.232;2022-07-21T14:20:18;11.17;;;9.30;;
12950;SDS011;6540;50.858;7.232;2022-07-21T14:22:44;10.33;;;8.93;;
12950;SDS011;6540;50.858;7.232;2022-07-21T14:25:09;10.27;;;8.80;;
12950;SDS011;6540;50.858;7.232;2022-07-21T14:27:44;11.37;;;9.27;;
12950;SDS011;6540;50.858;7.232;2022-07-21T14:30:10;9.50;;;8.33;;
12950;SDS011;6540;50.858;7.232;2022-07-21T14:32:36;10.60;;;9.50;;
12950;SDS011;6540;50.858;7.232;2022-07-21T14:35:01;8.73;;;6.77;;
12950;SDS011;6540;50.858;7.232;2022-07-21T14:37:27;7.27;;;6.53;;
12950;SDS011;6540;50.858;7.232;2022-07-21T14:39:52;9.33;;;7.10;;
12950;SDS011;6540;50.858;7.232;2022-07-21T14:42:18;6.93;;;6.27;;
12950;SDS011;6540;50.858;7.232;2022-07-21T14:44:43;10.20;;;7.77;;
12950;SDS011;6540;50.858;7.232;2022-07-21T14:47:10;8.27;;;7.43;;
12950;SDS011;6540;50.858;7.232;2022-07-21T14:49:36;9.27;;;8.00;;
12950;SDS011;6540;50.858;7.232;2022-07-21T14:52:03;10.47;;;8.47;;
12950;SDS011;6540;50.858;7.232;2022-07-21T14:54:29;9.43;;;8.50;;
12950;SDS011;6540;50.858;7.232;2022-07-21T14:56:54;12.43;;;9.70;;
12950;SDS011;6540;50.858;7.232;2022-07-21T14:59:20;10.30;;;9.20;;
12950;SDS011;6540;50.858;7.232;2022-07-21T15:01:46;12.63;;;9.43;;
12950;SDS011;6540;50.858;7.232;2022-07-21T15:04:11;14.83;;;10.30;;
12950;SDS011;6540;50.858;7.232;2022-07-21T15:06:36;10.87;;;9.63;;
12950;SDS011;6540;50.858;7.232;2022-07-21T15:09:02;12.80;;;9.87;;
12950;SDS011;6540;50.858;7.232;2022-07-21T15:11:28;11.53;;;10.33;;
12950;SDS011;6540;50.858;7.232;2022-07-21T15:13:53;12.20;;;10.63;;
12950;SDS011;6540;50.858;7.232;2022-07-21T15:16:18;12.70;;;10.60;;
12950;SDS011;6540;50.858;7.232;2022-07-21T15:18:44;13.27;;;11.30;;
12950;SDS011;6540;50.858;7.232;2022-07-21T15:21:09;13.77;;;10.80;;
12950;SDS011;6540;50.858;7.232;2022-07-21T15:23:35;15.43;;;12.60;;
12950;SDS011;6540;50.858;7.232;2022-07-21T15:26:00;11.73;;;10.53;;
12950;SDS011;6540;50.858;7.232;2022-07-21T15:28:26;16.63;;;12.10;;
12950;SDS011;6540;50.858;7.232;2022-07-21T15:30:51;17.67;;;11.80;;
12950;SDS011;6540;50.858;7.232;2022-07-21T15:33:17;12.73;;;11.40;;
12950;SDS011;6540;50.858;7.232;2022-07-21T15:35:42;14.20;;;11.97;;
12950;SDS011;6540;50.858;7.232;2022-07-21T15:38:08;13.10;;;11.80;;
12950;SDS011;6540;50.858;7.232;2022-07-21T15:40:33;12.77;;;11.47;;
12950;SDS011;6540;50.858;7.232;2022-07-21T15:42:58;13.90;;;10.97;;
12950;SDS011;6540;50.858;7.232;2022-07-21T15:45:24;11.63;;;10.00;;
12950;SDS011;6540;50.858;7.232;2022-07-21T15:47:49;12.17;;;9.60;;
12950;SDS011;6540;50.858;7.232;2022-07-21T15:50:15;11.00;;;9.57;;